sensor_id;sensor_type;location;lat;lon;timestamp;pressure;altitude;pressure_sealevel;temperature;humidity
84122;BME280;74217;51.106;17.084;2024-03-17T00:02:34;100754.22;;;5.45;68.85
84122;BME280;74217;51.106;17.084;2024-03-17T00:05:20;100755.91;;;5.49;68.55
84122;BME280;74217;51.106;17.084;2024-03-17T00:08:05;100749.78;;;5.52;68.31
84122;BME280;74217;51.106;17.084;2024-03-17T00:10:51;100760.97;;;5.57;68.94
84122;BME280;74217;51.106;17.084;2024-03-17T00:13:35;100764.72;;;5.41;69.33
84122;BME280;74217;51.106;17.084;2024-03-17T00:16:21;100765.75;;;5.29;71.34
84122;BME280;74217;51.106;17.084;2024-03-17T00:19:05;100761.38;;;5.31;69.44
84122;BME280;74217;51.106;17.084;2024-03-17T00:21:50;100759.53;;;5.39;69.70
84122;BME280;74217;51.106;17.084;2024-03-17T00:24:35;100756.00;;;5.43;70.88
84122;BME280;74217;51.106;17.084;2024-03-17T00:27:20;100760.25;;;5.49;69.06
84122;BME280;74217;51.106;17.084;2024-03-17T00:30:05;100761.38;;;5.31;69.94
84122;BME280;74217;51.106;17.084;2024-03-17T00:32:55;100766.59;;;5.31;69.40
84122;BME280;74217;51.106;17.084;2024-03-17T00:35:40;100772.00;;;5.19;71.62
84122;BME280;74217;51.106;17.084;2024-03-17T00:38:25;100770.13;;;5.27;69.73
84122;BME280;74217;51.106;17.084;2024-03-17T00:41:10;100763.22;;;5.23;69.78
84122;BME280;74217;51.106;17.084;2024-03-17T00:43:54;100764.09;;;5.24;70.08
84122;BME280;74217;51.106;17.084;2024-03-17T00:46:39;100770.25;;;5.18;69.71
84122;BME280;74217;51.106;17.084;2024-03-17T00:49:27;100770.19;;;5.24;69.44
84122;BME280;74217;51.106;17.084;2024-03-17T00:52:11;100768.41;;;5.28;70.04
84122;BME280;74217;51.106;17.084;2024-03-17T00:54:56;100773.66;;;5.23;69.13
84122;BME280;74217;51.106;17.084;2024-03-17T00:57:41;100777.22;;;5.19;70.28
84122;BME280;74217;51.106;17.084;2024-03-17T01:00:26;100773.03;;;5.03;70.79
84122;BME280;74217;51.106;17.084;2024-03-17T01:03:11;100774.00;;;4.96;70.85
84122;BME280;74217;51.106;17.084;2024-03-17T01:05:56;100775.78;;;4.94;71.31
84122;BME280;74217;51.106;17.084;2024-03-17T01:08:41;100768.78;;;4.99;71.12
84122;BME280;74217;51.106;17.084;2024-03-17T01:11:26;100778.31;;;5.00;70.67
84122;BME280;74217;51.106;17.084;2024-03-17T01:14:12;100771.31;;;5.01;71.04
84122;BME280;74217;51.106;17.084;2024-03-17T01:16:58;100772.28;;;4.97;70.52
84122;BME280;74217;51.106;17.084;2024-03-17T01:19:43;100771.47;;;4.90;71.45
84122;BME280;74217;51.106;17.084;2024-03-17T01:22:28;100768.72;;;5.02;70.26
84122;BME280;74217;51.106;17.084;2024-03-17T01:25:13;100766.09;;;5.04;70.41
84122;BME280;74217;51.106;17.084;2024-03-17T01:27:59;100769.66;;;4.97;70.50
84122;BME280;74217;51.106;17.084;2024-03-17T01:30:43;100774.91;;;4.95;70.38
84122;BME280;74217;51.106;17.084;2024-03-17T01:33:29;100772.34;;;4.91;71.03
84122;BME280;74217;51.106;17.084;2024-03-17T01:36:14;100772.50;;;4.80;71.53
84122;BME280;74217;51.106;17.084;2024-03-17T01:38:59;100774.97;;;4.91;71.71
84122;BME280;74217;51.106;17.084;2024-03-17T01:41:44;100774.97;;;4.88;71.37
84122;BME280;74217;51.106;17.084;2024-03-17T01:44:29;100782.81;;;4.88;71.52
84122;BME280;74217;51.106;17.084;2024-03-17T01:47:15;100777.78;;;4.74;71.61
84122;BME280;74217;51.106;17.084;2024-03-17T01:50:00;100776.22;;;4.58;72.52
84122;BME280;74217;51.106;17.084;2024-03-17T01:52:46;100763.19;;;4.58;70.89
84122;BME280;74217;51.106;17.084;2024-03-17T01:55:37;100783.97;;;4.64;71.19
84122;BME280;74217;51.106;17.084;2024-03-17T01:58:24;100779.59;;;4.66;72.09
84122;BME280;74217;51.106;17.084;2024-03-17T02:01:11;100777.81;;;4.71;71.86
84122;BME280;74217;51.106;17.084;2024-03-17T02:03:59;100786.44;;;4.73;71.59
84122;BME280;74217;51.106;17.084;2024-03-17T02:06:44;100782.09;;;4.75;71.84
84122;BME280;74217;51.106;17.084;2024-03-17T02:09:29;100790.75;;;4.77;70.73
84122;BME280;74217;51.106;17.084;2024-03-17T02:12:14;100784.78;;;4.69;71.60
84122;BME280;74217;51.106;17.084;2024-03-17T02:14:59;100791.78;;;4.67;71.32
84122;BME280;74217;51.106;17.084;2024-03-17T02:17:44;100797.06;;;4.61;71.49
84122;BME280;74217;51.106;17.084;2024-03-17T02:20:29;100791.91;;;4.54;71.68
84122;BME280;74217;51.106;17.084;2024-03-17T02:23:33;100792.03;;;4.40;71.43
84122;BME280;74217;51.106;17.084;2024-03-17T02:26:18;100790.28;;;4.44;71.06
84122;BME280;74217;51.106;17.084;2024-03-17T02:29:04;100787.72;;;4.39;69.99
84122;BME280;74217;51.106;17.084;2024-03-17T02:31:48;100785.94;;;4.43;69.81
84122;BME280;74217;51.106;17.084;2024-03-17T02:34:38;100799.03;;;4.35;70.00
84122;BME280;74217;51.106;17.084;2024-03-17T02:37:26;100800.75;;;4.39;69.96
84122;BME280;74217;51.106;17.084;2024-03-17T02:40:12;100803.41;;;4.33;69.08
84122;BME280;74217;51.106;17.084;2024-03-17T02:42:56;100792.28;;;4.16;69.32
84122;BME280;74217;51.106;17.084;2024-03-17T02:45:43;100800.91;;;4.24;68.96
84122;BME280;74217;51.106;17.084;2024-03-17T02:48:27;100806.06;;;4.27;68.99
84122;BME280;74217;51.106;17.084;2024-03-17T02:51:14;100809.66;;;4.16;69.59
84122;BME280;74217;51.106;17.084;2024-03-17T02:53:59;100821.84;;;4.12;70.21
84122;BME280;74217;51.106;17.084;2024-03-17T02:56:45;100820.97;;;4.13;70.98
84122;BME280;74217;51.106;17.084;2024-03-17T02:59:30;100821.84;;;4.11;70.72
84122;BME280;74217;51.106;17.084;2024-03-17T03:02:15;100815.09;;;3.93;70.99
84122;BME280;74217;51.106;17.084;2024-03-17T03:05:00;100827.16;;;4.00;72.06
84122;BME280;74217;51.106;17.084;2024-03-17T03:07:45;100831.53;;;3.94;72.00
84122;BME280;74217;51.106;17.084;2024-03-17T03:10:29;100834.09;;;4.01;71.20
84122;BME280;74217;51.106;17.084;2024-03-17T03:13:14;100826.34;;;3.92;72.16
84122;BME280;74217;51.106;17.084;2024-03-17T03:15:59;100825.50;;;3.93;72.18
84122;BME280;74217;51.106;17.084;2024-03-17T03:18:45;100825.41;;;4.02;70.68
84122;BME280;74217;51.106;17.084;2024-03-17T03:21:29;100832.31;;;4.06;71.21
84122;BME280;74217;51.106;17.084;2024-03-17T03:24:14;100823.69;;;4.01;71.34
84122;BME280;74217;51.106;17.084;2024-03-17T03:26:59;100839.25;;;4.07;71.91
84122;BME280;74217;51.106;17.084;2024-03-17T03:29:44;100827.13;;;4.03;70.88
84122;BME280;74217;51.106;17.084;2024-03-17T03:32:29;100828.84;;;4.07;71.04
84122;BME280;74217;51.106;17.084;2024-03-17T03:35:14;100821.91;;;4.06;70.81
84122;BME280;74217;51.106;17.084;2024-03-17T03:37:59;100825.47;;;3.95;71.26
84122;BME280;74217;51.106;17.084;2024-03-17T03:40:44;100821.06;;;4.03;70.67
84122;BME280;74217;51.106;17.084;2024-03-17T03:43:29;100821.03;;;4.09;71.15
84122;BME280;74217;51.106;17.084;2024-03-17T03:46:16;100826.28;;;4.03;71.47
84122;BME280;74217;51.106;17.084;2024-03-17T03:49:01;100832.44;;;3.91;72.14
84122;BME280;74217;51.106;17.084;2024-03-17T03:51:46;100825.69;;;3.66;73.01
84122;BME280;74217;51.106;17.084;2024-03-17T03:54:31;100825.59;;;3.81;72.20
84122;BME280;74217;51.106;17.084;2024-03-17T03:57:16;100825.63;;;3.74;72.75
84122;BME280;74217;51.106;17.084;2024-03-17T04:00:00;100817.81;;;3.77;71.44
84122;BME280;74217;51.106;17.084;2024-03-17T04:02:45;100827.31;;;3.82;71.40
84122;BME280;74217;51.106;17.084;2024-03-17T04:05:30;100825.63;;;3.72;71.77
84122;BME280;74217;51.106;17.084;2024-03-17T04:08:15;100827.34;;;3.76;72.36
84122;BME280;74217;51.106;17.084;2024-03-17T04:11:00;100831.69;;;3.77;71.86
84122;BME280;74217;51.106;17.084;2024-03-17T04:13:48;100838.59;;;3.78;71.90
84122;BME280;74217;51.106;17.084;2024-03-17T04:16:33;100827.47;;;3.60;73.47
84122;BME280;74217;51.106;17.084;2024-03-17T04:19:18;100840.47;;;3.60;72.22
84122;BME280;74217;51.106;17.084;2024-03-17T04:22:03;100838.72;;;3.60;71.77
84122;BME280;74217;51.106;17.084;2024-03-17T04:24:49;100837.88;;;3.62;71.69
84122;BME280;74217;51.106;17.084;2024-03-17T04:27:40;100829.34;;;3.36;73.32
84122;BME280;74217;51.106;17.084;2024-03-17T04:30:26;100837.03;;;3.53;72.48
84122;BME280;74217;51.106;17.084;2024-03-17T04:33:11;100839.69;;;3.47;71.92
84122;BME280;74217;51.106;17.084;2024-03-17T04:35:57;100839.75;;;3.37;74.02
84122;BME280;74217;51.106;17.084;2024-03-17T04:38:41;100847.53;;;3.37;72.85
84122;BME280;74217;51.106;17.084;2024-03-17T04:41:26;100851.78;;;3.57;71.95
84122;BME280;74217;51.106;17.084;2024-03-17T04:44:12;100840.56;;;3.48;71.21
84122;BME280;74217;51.106;17.084;2024-03-17T04:46:57;100848.31;;;3.53;71.30
84122;BME280;74217;51.106;17.084;2024-03-17T04:49:43;100851.91;;;3.37;72.40
84122;BME280;74217;51.106;17.084;2024-03-17T04:52:29;100857.13;;;3.28;72.61
84122;BME280;74217;51.106;17.084;2024-03-17T04:55:14;100851.91;;;3.34;72.83
84122;BME280;74217;51.106;17.084;2024-03-17T04:57:59;100847.50;;;3.45;72.09
84122;BME280;74217;51.106;17.084;2024-03-17T05:00:43;100851.84;;;3.44;71.97
84122;BME280;74217;51.106;17.084;2024-03-17T05:03:28;100833.69;;;3.34;71.96
84122;BME280;74217;51.106;17.084;2024-03-17T05:06:13;100862.34;;;3.31;72.82
84122;BME280;74217;51.106;17.084;2024-03-17T05:08:58;100859.72;;;3.37;71.93
84122;BME280;74217;51.106;17.084;2024-03-17T05:11:43;100858.78;;;3.41;71.66
84122;BME280;74217;51.106;17.084;2024-03-17T05:14:28;100861.41;;;3.39;72.29
84122;BME280;74217;51.106;17.084;2024-03-17T05:17:14;100853.63;;;3.38;71.17
84122;BME280;74217;51.106;17.084;2024-03-17T05:19:59;100867.59;;;3.19;73.38
84122;BME280;74217;51.106;17.084;2024-03-17T05:22:44;100864.94;;;3.29;71.63
84122;BME280;74217;51.106;17.084;2024-03-17T05:25:31;100872.69;;;3.40;70.92
84122;BME280;74217;51.106;17.084;2024-03-17T05:28:20;100877.84;;;3.46;71.67
84122;BME280;74217;51.106;17.084;2024-03-17T05:31:06;100868.34;;;3.39;70.50
84122;BME280;74217;51.106;17.084;2024-03-17T05:33:53;100876.19;;;3.30;71.40
84122;BME280;74217;51.106;17.084;2024-03-17T05:36:38;100868.34;;;3.37;72.27
84122;BME280;74217;51.106;17.084;2024-03-17T05:39:22;100876.97;;;3.45;70.98
84122;BME280;74217;51.106;17.084;2024-03-17T05:42:07;100880.47;;;3.41;70.96
84122;BME280;74217;51.106;17.084;2024-03-17T05:44:52;100886.59;;;3.33;70.54
84122;BME280;74217;51.106;17.084;2024-03-17T05:47:38;100888.31;;;3.37;70.81
84122;BME280;74217;51.106;17.084;2024-03-17T05:50:23;100886.50;;;3.51;70.46
84122;BME280;74217;51.106;17.084;2024-03-17T05:53:08;100903.00;;;3.41;71.87
84122;BME280;74217;51.106;17.084;2024-03-17T05:55:53;100886.47;;;3.57;70.75
84122;BME280;74217;51.106;17.084;2024-03-17T05:58:39;100889.88;;;3.66;69.53
84122;BME280;74217;51.106;17.084;2024-03-17T06:01:24;100888.94;;;3.76;69.17
84122;BME280;74217;51.106;17.084;2024-03-17T06:04:09;100877.69;;;3.72;69.38
84122;BME280;74217;51.106;17.084;2024-03-17T06:06:54;100874.38;;;3.47;69.90
84122;BME280;74217;51.106;17.084;2024-03-17T06:09:39;100873.53;;;3.46;69.54
84122;BME280;74217;51.106;17.084;2024-03-17T06:12:24;100883.88;;;3.55;69.22
84122;BME280;74217;51.106;17.084;2024-03-17T06:15:10;100877.81;;;3.52;69.84
84122;BME280;74217;51.106;17.084;2024-03-17T06:17:55;100889.88;;;3.64;68.68
84122;BME280;74217;51.106;17.084;2024-03-17T06:20:42;100890.69;;;3.75;68.69
84122;BME280;74217;51.106;17.084;2024-03-17T06:23:27;100880.34;;;3.65;67.54
84122;BME280;74217;51.106;17.084;2024-03-17T06:26:13;100894.09;;;3.82;68.48
84122;BME280;74217;51.106;17.084;2024-03-17T06:28:57;100903.63;;;3.86;68.45
84122;BME280;74217;51.106;17.084;2024-03-17T06:31:42;100908.72;;;4.02;66.52
84122;BME280;74217;51.106;17.084;2024-03-17T06:34:27;100918.16;;;4.14;65.89
84122;BME280;74217;51.106;17.084;2024-03-17T06:37:12;100913.78;;;4.17;65.38
84122;BME280;74217;51.106;17.084;2024-03-17T06:39:57;100917.22;;;4.22;64.63
84122;BME280;74217;51.106;17.084;2024-03-17T06:42:42;100925.09;;;4.21;64.59
84122;BME280;74217;51.106;17.084;2024-03-17T06:45:27;100935.50;;;4.21;65.36
84122;BME280;74217;51.106;17.084;2024-03-17T06:48:12;100941.59;;;4.15;65.18
84122;BME280;74217;51.106;17.084;2024-03-17T06:50:57;100936.34;;;4.24;64.45
84122;BME280;74217;51.106;17.084;2024-03-17T06:53:42;100940.63;;;4.30;64.50
84122;BME280;74217;51.106;17.084;2024-03-17T06:56:27;100937.97;;;4.36;64.14
84122;BME280;74217;51.106;17.084;2024-03-17T06:59:11;100939.78;;;4.25;65.21
84122;BME280;74217;51.106;17.084;2024-03-17T07:01:56;100943.91;;;4.53;64.53
84122;BME280;74217;51.106;17.084;2024-03-17T07:04:41;100943.78;;;4.66;63.29
84122;BME280;74217;51.106;17.084;2024-03-17T07:07:29;100948.91;;;4.77;62.15
84122;BME280;74217;51.106;17.084;2024-03-17T07:10:14;100941.16;;;4.68;63.01
84122;BME280;74217;51.106;17.084;2024-03-17T07:13:00;100942.81;;;4.76;63.90
84122;BME280;74217;51.106;17.084;2024-03-17T07:15:48;100945.38;;;4.82;61.80
84122;BME280;74217;51.106;17.084;2024-03-17T07:18:33;100947.88;;;4.94;62.46
84122;BME280;74217;51.106;17.084;2024-03-17T07:21:19;100949.53;;;4.98;61.43
84122;BME280;74217;51.106;17.084;2024-03-17T07:24:04;100936.72;;;4.80;62.34
84122;BME280;74217;51.106;17.084;2024-03-17T07:26:49;100943.59;;;4.84;62.06
84122;BME280;74217;51.106;17.084;2024-03-17T07:29:34;100942.72;;;4.88;60.72
84122;BME280;74217;51.106;17.084;2024-03-17T07:32:20;100952.25;;;4.89;61.24
84122;BME280;74217;51.106;17.084;2024-03-17T07:35:04;100951.38;;;4.90;61.95
84122;BME280;74217;51.106;17.084;2024-03-17T07:37:49;100949.47;;;5.04;61.97
84122;BME280;74217;51.106;17.084;2024-03-17T07:40:34;100946.97;;;4.97;61.55
84122;BME280;74217;51.106;17.084;2024-03-17T07:43:20;100944.44;;;4.89;60.07
84122;BME280;74217;51.106;17.084;2024-03-17T07:46:09;100958.28;;;4.94;60.31
84122;BME280;74217;51.106;17.084;2024-03-17T07:48:58;100928.91;;;4.80;62.23
84122;BME280;74217;51.106;17.084;2024-03-17T07:51:43;100952.31;;;4.82;61.73
84122;BME280;74217;51.106;17.084;2024-03-17T07:54:29;100945.47;;;4.72;61.13
84122;BME280;74217;51.106;17.084;2024-03-17T07:57:13;100951.53;;;4.72;60.64
84122;BME280;74217;51.106;17.084;2024-03-17T07:59:59;100951.47;;;4.80;61.84
84122;BME280;74217;51.106;17.084;2024-03-17T08:02:47;100953.03;;;4.97;62.65
84122;BME280;74217;51.106;17.084;2024-03-17T08:05:32;100934.66;;;5.09;60.39
84122;BME280;74217;51.106;17.084;2024-03-17T08:08:18;100944.31;;;5.01;60.25
84122;BME280;74217;51.106;17.084;2024-03-17T08:11:03;100948.69;;;4.98;60.09
84122;BME280;74217;51.106;17.084;2024-03-17T08:13:48;100949.53;;;4.98;59.08
84122;BME280;74217;51.106;17.084;2024-03-17T08:16:33;100935.72;;;4.93;59.18
84122;BME280;74217;51.106;17.084;2024-03-17T08:19:18;100937.44;;;4.91;59.82
84122;BME280;74217;51.106;17.084;2024-03-17T08:22:02;100940.09;;;4.90;59.60
84122;BME280;74217;51.106;17.084;2024-03-17T08:24:47;100932.09;;;5.06;58.33
84122;BME280;74217;51.106;17.084;2024-03-17T08:27:33;100936.31;;;5.19;58.99
84122;BME280;74217;51.106;17.084;2024-03-17T08:30:18;100933.00;;;5.02;60.48
84122;BME280;74217;51.106;17.084;2024-03-17T08:33:03;100931.94;;;5.23;57.92
84122;BME280;74217;51.106;17.084;2024-03-17T08:36:06;100926.66;;;5.27;58.71
84122;BME280;74217;51.106;17.084;2024-03-17T08:38:51;100947.50;;;5.30;59.01
84122;BME280;74217;51.106;17.084;2024-03-17T08:41:37;100938.91;;;5.16;59.93
84122;BME280;74217;51.106;17.084;2024-03-17T08:44:22;100951.13;;;5.14;59.89
84122;BME280;74217;51.106;17.084;2024-03-17T08:47:06;100939.06;;;5.04;60.06
84122;BME280;74217;51.106;17.084;2024-03-17T08:49:51;100942.59;;;5.00;60.27
84122;BME280;74217;51.106;17.084;2024-03-17T08:52:35;100938.97;;;5.10;59.98
84122;BME280;74217;51.106;17.084;2024-03-17T08:55:20;100938.03;;;5.22;61.60
84122;BME280;74217;51.106;17.084;2024-03-17T08:58:04;100945.59;;;5.44;57.19
84122;BME280;74217;51.106;17.084;2024-03-17T09:00:49;100938.81;;;5.28;57.28
84122;BME280;74217;51.106;17.084;2024-03-17T09:03:35;100937.97;;;5.26;57.63
84122;BME280;74217;51.106;17.084;2024-03-17T09:06:20;100938.53;;;5.52;55.53
84122;BME280;74217;51.106;17.084;2024-03-17T09:09:07;100927.94;;;5.64;55.30
84122;BME280;74217;51.106;17.084;2024-03-17T09:11:52;100929.97;;;6.03;54.82
84122;BME280;74217;51.106;17.084;2024-03-17T09:14:36;100941.03;;;6.20;52.57
84122;BME280;74217;51.106;17.084;2024-03-17T09:17:21;100948.97;;;6.14;52.04
84122;BME280;74217;51.106;17.084;2024-03-17T09:20:07;100942.88;;;6.14;51.84
84122;BME280;74217;51.106;17.084;2024-03-17T09:22:56;100932.50;;;6.09;52.15
84122;BME280;74217;51.106;17.084;2024-03-17T09:25:40;100945.31;;;6.26;49.34
84122;BME280;74217;51.106;17.084;2024-03-17T09:28:25;100934.84;;;6.27;50.21
84122;BME280;74217;51.106;17.084;2024-03-17T09:31:10;100927.78;;;6.34;51.61
84122;BME280;74217;51.106;17.084;2024-03-17T09:33:55;100928.06;;;6.16;53.20
84122;BME280;74217;51.106;17.084;2024-03-17T09:36:40;100923.38;;;6.37;51.88
84122;BME280;74217;51.106;17.084;2024-03-17T09:39:24;100932.09;;;6.36;52.64
84122;BME280;74217;51.106;17.084;2024-03-17T09:42:17;100942.69;;;6.27;52.01
84122;BME280;74217;51.106;17.084;2024-03-17T09:45:03;100950.59;;;6.23;50.05
84122;BME280;74217;51.106;17.084;2024-03-17T09:47:47;100936.19;;;5.96;51.83
84122;BME280;74217;51.106;17.084;2024-03-17T09:50:33;100939.44;;;6.12;52.47
84122;BME280;74217;51.106;17.084;2024-03-17T09:53:23;100930.38;;;6.34;51.84
84122;BME280;74217;51.106;17.084;2024-03-17T09:56:11;100936.56;;;6.28;51.07
84122;BME280;74217;51.106;17.084;2024-03-17T09:58:55;100947.81;;;6.33;51.49
84122;BME280;74217;51.106;17.084;2024-03-17T10:01:40;100932.13;;;6.33;48.11
84122;BME280;74217;51.106;17.084;2024-03-17T10:04:31;100921.78;;;6.26;48.35
84122;BME280;74217;51.106;17.084;2024-03-17T10:07:18;100924.66;;;6.09;48.47
84122;BME280;74217;51.106;17.084;2024-03-17T10:10:22;100925.72;;;5.99;49.42
84122;BME280;74217;51.106;17.084;2024-03-17T10:13:12;100929.84;;;6.12;51.01
84122;BME280;74217;51.106;17.084;2024-03-17T10:15:56;100924.34;;;6.30;48.96
84122;BME280;74217;51.106;17.084;2024-03-17T10:18:41;100921.84;;;6.24;48.21
84122;BME280;74217;51.106;17.084;2024-03-17T10:21:26;100922.59;;;6.31;48.42
84122;BME280;74217;51.106;17.084;2024-03-17T10:24:26;100923.25;;;6.43;47.48
84122;BME280;74217;51.106;17.084;2024-03-17T10:27:12;100924.56;;;6.68;47.54
84122;BME280;74217;51.106;17.084;2024-03-17T10:29:57;100925.06;;;6.90;46.97
84122;BME280;74217;51.106;17.084;2024-03-17T10:32:42;100916.84;;;7.09;47.17
84122;BME280;74217;51.106;17.084;2024-03-17T10:35:34;100906.13;;;7.23;46.92
84122;BME280;74217;51.106;17.084;2024-03-17T10:38:19;100900.38;;;7.48;46.40
84122;BME280;74217;51.106;17.084;2024-03-17T10:41:05;100920.06;;;7.64;46.71
84122;BME280;74217;51.106;17.084;2024-03-17T10:43:49;100909.34;;;7.35;46.86
84122;BME280;74217;51.106;17.084;2024-03-17T10:46:34;100913.38;;;7.09;45.96
84122;BME280;74217;51.106;17.084;2024-03-17T10:49:19;100918.91;;;6.92;46.90
84122;BME280;74217;51.106;17.084;2024-03-17T10:52:16;100919.88;;;6.85;47.92
84122;BME280;74217;51.106;17.084;2024-03-17T10:55:08;100919.16;;;6.79;47.11
84122;BME280;74217;51.106;17.084;2024-03-17T10:57:54;100918.59;;;6.60;48.03
84122;BME280;74217;51.106;17.084;2024-03-17T11:00:43;100924.81;;;6.53;48.88
84122;BME280;74217;51.106;17.084;2024-03-17T11:03:33;100918.94;;;6.41;50.41
84122;BME280;74217;51.106;17.084;2024-03-17T11:06:19;100923.09;;;6.52;49.86
84122;BME280;74217;51.106;17.084;2024-03-17T11:09:06;100918.47;;;6.66;50.22
84122;BME280;74217;51.106;17.084;2024-03-17T11:11:58;100919.28;;;6.71;49.17
84122;BME280;74217;51.106;17.084;2024-03-17T11:14:45;100907.44;;;6.98;48.44
84122;BME280;74217;51.106;17.084;2024-03-17T11:17:32;100901.25;;;7.03;47.38
84122;BME280;74217;51.106;17.084;2024-03-17T11:20:24;100893.16;;;7.17;45.83
84122;BME280;74217;51.106;17.084;2024-03-17T11:23:26;100902.50;;;7.28;45.64
84122;BME280;74217;51.106;17.084;2024-03-17T11:26:26;100871.84;;;7.35;45.98
84122;BME280;74217;51.106;17.084;2024-03-17T11:29:28;100875.38;;;7.73;46.35
84122;BME280;74217;51.106;17.084;2024-03-17T11:32:25;100887.06;;;7.95;44.97
84122;BME280;74217;51.106;17.084;2024-03-17T11:35:15;100876.28;;;8.07;44.15
84122;BME280;74217;51.106;17.084;2024-03-17T11:38:00;100880.03;;;7.97;43.34
84122;BME280;74217;51.106;17.084;2024-03-17T11:40:45;100878.31;;;7.95;43.56
84122;BME280;74217;51.106;17.084;2024-03-17T11:43:31;100861.16;;;7.83;42.66
84122;BME280;74217;51.106;17.084;2024-03-17T11:46:16;100879.69;;;8.12;42.29
84122;BME280;74217;51.106;17.084;2024-03-17T11:49:03;100874.50;;;8.09;43.52
84122;BME280;74217;51.106;17.084;2024-03-17T11:51:49;100869.53;;;7.97;44.27
84122;BME280;74217;51.106;17.084;2024-03-17T11:54:36;100864.44;;;7.91;43.43
84122;BME280;74217;51.106;17.084;2024-03-17T11:57:25;100868.19;;;7.81;44.51
84122;BME280;74217;51.106;17.084;2024-03-17T12:00:22;100861.53;;;7.67;45.33
84122;BME280;74217;51.106;17.084;2024-03-17T12:03:10;100865.44;;;7.49;43.81
84122;BME280;74217;51.106;17.084;2024-03-17T12:05:56;100862.44;;;7.26;43.84
84122;BME280;74217;51.106;17.084;2024-03-17T12:08:40;100857.28;;;7.23;43.49
84122;BME280;74217;51.106;17.084;2024-03-17T12:11:26;100859.00;;;7.24;43.09
84122;BME280;74217;51.106;17.084;2024-03-17T12:14:21;100860.63;;;7.28;42.98
84122;BME280;74217;51.106;17.084;2024-03-17T12:17:08;100864.00;;;7.33;42.48
84122;BME280;74217;51.106;17.084;2024-03-17T12:19:53;100856.13;;;7.35;43.89
84122;BME280;74217;51.106;17.084;2024-03-17T12:22:40;100854.34;;;7.37;43.47
84122;BME280;74217;51.106;17.084;2024-03-17T12:25:26;100842.28;;;7.30;43.10
84122;BME280;74217;51.106;17.084;2024-03-17T12:28:16;100855.03;;;7.45;42.60
84122;BME280;74217;51.106;17.084;2024-03-17T12:31:02;100836.00;;;7.38;44.55
84122;BME280;74217;51.106;17.084;2024-03-17T12:33:47;100829.31;;;7.24;44.69
84122;BME280;74217;51.106;17.084;2024-03-17T12:36:32;100834.59;;;7.22;42.75
84122;BME280;74217;51.106;17.084;2024-03-17T12:42:10;100838.25;;;7.53;41.76
84122;BME280;74217;51.106;17.084;2024-03-17T12:44:57;100833.91;;;7.52;42.76
84122;BME280;74217;51.106;17.084;2024-03-17T12:47:47;100826.06;;;7.52;42.21
84122;BME280;74217;51.106;17.084;2024-03-17T12:50:33;100820.47;;;7.29;41.39
84122;BME280;74217;51.106;17.084;2024-03-17T12:53:18;100819.53;;;7.33;41.36
84122;BME280;74217;51.106;17.084;2024-03-17T12:56:07;100828.31;;;7.29;43.24
84122;BME280;74217;51.106;17.084;2024-03-17T12:59:12;100824.75;;;7.33;45.29
84122;BME280;74217;51.106;17.084;2024-03-17T13:02:17;100841.25;;;7.37;45.61
84122;BME280;74217;51.106;17.084;2024-03-17T13:05:17;100831.94;;;7.24;45.43
84122;BME280;74217;51.106;17.084;2024-03-17T13:08:04;100830.25;;;7.21;43.37
84122;BME280;74217;51.106;17.084;2024-03-17T13:10:50;100813.66;;;7.22;44.58
84122;BME280;74217;51.106;17.084;2024-03-17T13:13:35;100816.91;;;7.33;43.61
84122;BME280;74217;51.106;17.084;2024-03-17T13:16:20;100819.38;;;7.41;40.92
84122;BME280;74217;51.106;17.084;2024-03-17T13:19:04;100819.53;;;7.32;40.90
84122;BME280;74217;51.106;17.084;2024-03-17T13:21:51;100805.00;;;7.57;40.56
84122;BME280;74217;51.106;17.084;2024-03-17T13:24:36;100805.75;;;7.63;41.63
84122;BME280;74217;51.106;17.084;2024-03-17T13:27:20;100811.50;;;7.77;42.57
84122;BME280;74217;51.106;17.084;2024-03-17T13:30:06;100811.88;;;7.62;42.67
84122;BME280;74217;51.106;17.084;2024-03-17T13:32:50;100797.50;;;7.42;44.03
84122;BME280;74217;51.106;17.084;2024-03-17T13:35:40;100801.56;;;7.56;43.78
84122;BME280;74217;51.106;17.084;2024-03-17T13:38:25;100807.56;;;7.61;43.88
84122;BME280;74217;51.106;17.084;2024-03-17T13:41:10;100802.44;;;7.55;43.42
84122;BME280;74217;51.106;17.084;2024-03-17T13:43:54;100809.03;;;7.71;43.25
84122;BME280;74217;51.106;17.084;2024-03-17T13:46:41;100797.06;;;7.61;44.51
84122;BME280;74217;51.106;17.084;2024-03-17T13:49:26;100800.13;;;7.78;41.73
84122;BME280;74217;51.106;17.084;2024-03-17T13:52:11;100800.19;;;7.77;42.91
84122;BME280;74217;51.106;17.084;2024-03-17T13:54:55;100798.66;;;7.68;44.39
84122;BME280;74217;51.106;17.084;2024-03-17T13:57:43;100794.69;;;7.87;41.78
84122;BME280;74217;51.106;17.084;2024-03-17T14:00:29;100801.63;;;7.90;41.80
84122;BME280;74217;51.106;17.084;2024-03-17T14:03:15;100810.25;;;7.93;42.83
84122;BME280;74217;51.106;17.084;2024-03-17T14:06:00;100801.34;;;8.00;41.26
84122;BME280;74217;51.106;17.084;2024-03-17T14:08:44;100799.63;;;7.99;42.47
84122;BME280;74217;51.106;17.084;2024-03-17T14:11:29;100796.78;;;7.73;42.08
84122;BME280;74217;51.106;17.084;2024-03-17T14:14:15;100806.69;;;7.59;42.51
84122;BME280;74217;51.106;17.084;2024-03-17T14:16:59;100795.69;;;7.45;41.41
84122;BME280;74217;51.106;17.084;2024-03-17T14:19:44;100780.13;;;7.39;42.25
84122;BME280;74217;51.106;17.084;2024-03-17T14:22:28;100785.00;;;7.54;44.03
84122;BME280;74217;51.106;17.084;2024-03-17T14:25:17;100797.50;;;7.43;44.09
84122;BME280;74217;51.106;17.084;2024-03-17T14:28:02;100795.66;;;7.47;44.14
84122;BME280;74217;51.106;17.084;2024-03-17T14:30:47;100796.28;;;7.58;43.07
84122;BME280;74217;51.106;17.084;2024-03-17T14:33:32;100796.44;;;7.50;42.50